createdAt,value
2018-09-19T00:00:07.076Z,22.80
2018-09-19T00:02:33.400Z,22.78
2018-09-19T00:04:59.795Z,22.79
2018-09-19T00:07:26.187Z,22.75
2018-09-19T00:09:52.519Z,22.75
2018-09-19T00:12:18.840Z,22.75
2018-09-19T00:14:45.209Z,22.74
2018-09-19T00:17:11.651Z,22.73
2018-09-19T00:19:38.027Z,22.73
2018-09-19T00:22:04.516Z,22.71
2018-09-19T00:24:30.904Z,22.69
2018-09-19T00:26:57.325Z,22.69
2018-09-19T00:29:23.724Z,22.67
2018-09-19T00:31:50.073Z,22.65
2018-09-19T00:34:16.463Z,22.65
2018-09-19T00:36:42.803Z,22.63
2018-09-19T00:39:09.140Z,22.61
2018-09-19T00:41:35.559Z,22.64
2018-09-19T00:44:01.892Z,22.60
2018-09-19T00:46:28.292Z,22.61
2018-09-19T00:48:54.704Z,22.59
2018-09-19T00:51:21.043Z,22.57
2018-09-19T00:53:47.397Z,22.56
2018-09-19T00:56:13.725Z,22.55
2018-09-19T00:58:40.077Z,22.56
2018-09-19T01:01:06.417Z,22.51
2018-09-19T01:03:32.811Z,22.53
2018-09-19T01:05:59.157Z,22.34
2018-09-19T01:08:25.493Z,22.20
2018-09-19T01:10:51.823Z,22.08
2018-09-19T01:13:18.160Z,22.00
2018-09-19T01:15:44.508Z,21.93
2018-09-19T01:18:10.852Z,21.93
2018-09-19T01:20:37.219Z,21.96
2018-09-19T01:23:03.579Z,21.94
2018-09-19T01:25:29.955Z,21.87
2018-09-19T01:27:56.284Z,21.86
2018-09-19T01:30:22.651Z,21.91
2018-09-19T01:32:48.998Z,21.87
2018-09-19T01:35:15.322Z,21.88
2018-09-19T01:37:41.799Z,21.84
2018-09-19T01:40:08.159Z,21.82
2018-09-19T01:42:34.545Z,21.79
2018-09-19T01:45:01.088Z,21.81
2018-09-19T01:47:27.417Z,21.85
2018-09-19T01:49:53.745Z,21.76
2018-09-19T01:52:20.095Z,21.73
2018-09-19T01:54:46.524Z,21.79
2018-09-19T01:57:12.920Z,21.80
2018-09-19T01:59:39.249Z,21.72
2018-09-19T02:02:05.584Z,21.69
2018-09-19T02:04:31.990Z,21.75
2018-09-19T02:06:58.321Z,21.71
2018-09-19T02:09:24.664Z,21.68
2018-09-19T02:11:50.994Z,21.74
2018-09-19T02:14:17.328Z,21.65
2018-09-19T02:16:43.714Z,21.77
2018-09-19T02:19:10.103Z,21.67
2018-09-19T02:21:36.474Z,21.72
2018-09-19T02:24:02.805Z,21.66
2018-09-19T02:26:29.256Z,21.71
2018-09-19T02:28:55.649Z,21.69
2018-09-19T02:31:21.995Z,21.66
2018-09-19T02:33:48.364Z,21.60
2018-09-19T02:36:14.707Z,21.58
2018-09-19T02:38:41.059Z,21.63
2018-09-19T02:41:07.397Z,21.57
2018-09-19T02:43:33.803Z,21.54
2018-09-19T02:46:00.172Z,21.55
2018-09-19T02:48:26.518Z,21.60
2018-09-19T02:50:52.916Z,21.59
2018-09-19T02:53:19.329Z,21.54
2018-09-19T02:55:45.664Z,21.59
2018-09-19T02:58:12.070Z,21.59
2018-09-19T03:00:38.417Z,21.50
2018-09-19T03:03:04.804Z,21.55
2018-09-19T03:05:31.138Z,21.57
2018-09-19T03:07:57.512Z,21.50
2018-09-19T03:10:23.870Z,21.52
2018-09-19T03:12:50.276Z,21.53
2018-09-19T03:15:16.693Z,21.48
2018-09-19T03:17:43.575Z,21.48
2018-09-19T03:20:09.730Z,21.47
2018-09-19T03:22:36.093Z,21.48
2018-09-19T03:25:02.478Z,21.51
2018-09-19T03:27:28.828Z,21.58
2018-09-19T03:29:55.232Z,21.61
2018-09-19T03:32:21.568Z,21.62
2018-09-19T03:34:47.887Z,21.64
2018-09-19T03:37:14.239Z,21.67
2018-09-19T03:39:40.734Z,21.71
2018-09-19T03:42:07.091Z,21.67
2018-09-19T03:44:33.495Z,21.71
2018-09-19T03:46:59.828Z,21.67
2018-09-19T03:49:26.173Z,21.71
2018-09-19T03:51:52.550Z,21.71
2018-09-19T03:54:18.887Z,21.69
2018-09-19T03:56:45.241Z,21.72
2018-09-19T03:59:11.569Z,21.69
2018-09-19T04:01:37.975Z,21.74
2018-09-19T04:04:04.308Z,21.74
2018-09-19T04:06:30.734Z,21.72
2018-09-19T04:08:57.136Z,21.69
2018-09-19T04:11:23.468Z,21.70
2018-09-19T04:13:49.815Z,21.70
2018-09-19T04:16:16.161Z,21.74
2018-09-19T04:18:42.527Z,21.71
2018-09-19T04:21:08.867Z,21.72
2018-09-19T04:23:35.231Z,21.67
2018-09-19T04:26:01.558Z,21.72
2018-09-19T04:28:27.975Z,21.73
2018-09-19T04:30:54.339Z,21.77
2018-09-19T04:33:20.678Z,21.75
2018-09-19T04:35:47.150Z,21.78
2018-09-19T04:38:13.539Z,21.83
2018-09-19T04:40:39.927Z,21.84
2018-09-19T04:43:06.300Z,21.89
2018-09-19T04:45:32.629Z,21.91
2018-09-19T04:47:59.007Z,21.99
2018-09-19T04:50:25.341Z,22.02
2018-09-19T04:52:51.674Z,22.08
2018-09-19T04:55:18.039Z,22.07
2018-09-19T04:57:44.422Z,22.08
2018-09-19T05:00:10.765Z,22.08
2018-09-19T05:02:37.173Z,22.09
2018-09-19T05:05:03.525Z,22.14
2018-09-19T05:07:29.891Z,22.19
2018-09-19T05:09:56.243Z,22.22
2018-09-19T05:12:22.583Z,22.27
2018-09-19T05:14:48.925Z,22.30
2018-09-19T05:17:15.317Z,22.32
2018-09-19T05:19:41.759Z,22.33
2018-09-19T05:22:08.092Z,22.46
2018-09-19T05:24:34.427Z,22.44
2018-09-19T05:27:00.819Z,22.45
2018-09-19T05:29:27.213Z,22.49
2018-09-19T05:31:53.574Z,22.50
2018-09-19T05:34:19.906Z,22.52
2018-09-19T05:36:46.257Z,22.55
2018-09-19T05:39:12.578Z,22.56
2018-09-19T05:41:38.915Z,22.62
2018-09-19T05:44:05.249Z,22.65
2018-09-19T05:46:31.654Z,22.65
2018-09-19T05:48:57.960Z,22.74
2018-09-19T05:51:24.356Z,22.88
2018-09-19T05:53:50.753Z,23.00
2018-09-19T05:56:17.079Z,22.85
2018-09-19T05:58:43.463Z,22.84
2018-09-19T06:01:09.816Z,22.93
2018-09-19T06:03:36.158Z,22.95
2018-09-19T06:06:02.500Z,23.00
2018-09-19T06:08:28.937Z,23.04
2018-09-19T06:10:55.319Z,23.06
2018-09-19T06:13:21.669Z,23.15
2018-09-19T06:15:48.005Z,23.15
2018-09-19T06:18:14.345Z,23.15
2018-09-19T06:20:40.702Z,23.27
2018-09-19T06:23:07.314Z,23.27
2018-09-19T06:25:33.721Z,23.32
2018-09-19T06:28:00.166Z,23.48
2018-09-19T06:30:26.530Z,23.55
2018-09-19T06:32:52.929Z,23.58
2018-09-19T06:35:19.300Z,23.58
2018-09-19T06:37:45.732Z,23.69
2018-09-19T06:40:12.142Z,23.65
2018-09-19T06:42:38.462Z,23.63
2018-09-19T06:45:04.805Z,23.70
2018-09-19T06:47:31.166Z,23.84
2018-09-19T06:49:57.517Z,23.79
2018-09-19T06:52:23.895Z,23.82
2018-09-19T06:54:50.306Z,24.03
2018-09-19T06:57:16.703Z,23.94
2018-09-19T06:59:43.220Z,24.08
2018-09-19T07:02:09.512Z,24.00
2018-09-19T07:04:35.851Z,24.13
2018-09-19T07:07:02.276Z,24.20
2018-09-19T07:09:28.638Z,24.21
2018-09-19T07:11:55.100Z,24.19
2018-09-19T07:14:21.457Z,24.27
2018-09-19T07:16:47.796Z,24.39
2018-09-19T07:19:14.147Z,24.39
2018-09-19T07:21:40.487Z,24.41
2018-09-19T07:24:06.865Z,24.46
2018-09-19T07:26:33.287Z,24.52
2018-09-19T07:28:59.694Z,24.52
2018-09-19T07:31:26.050Z,24.56
2018-09-19T07:33:52.497Z,24.58
2018-09-19T07:36:18.849Z,24.61
2018-09-19T07:38:45.253Z,24.66
2018-09-19T07:41:11.676Z,24.40
2018-09-19T07:43:38.024Z,24.74
2018-09-19T07:46:04.380Z,24.77
2018-09-19T07:48:30.732Z,24.76
2018-09-19T07:50:57.146Z,24.83
2018-09-19T07:53:23.714Z,24.81
2018-09-19T07:55:50.083Z,24.87
2018-09-19T07:58:16.442Z,24.88
2018-09-19T08:00:43.023Z,24.92
2018-09-19T08:03:09.222Z,24.94
2018-09-19T08:05:35.564Z,24.85
2018-09-19T08:08:01.975Z,25.00
2018-09-19T08:10:28.389Z,24.96
2018-09-19T08:12:54.721Z,24.95
2018-09-19T08:15:21.085Z,24.92
2018-09-19T08:17:47.451Z,24.91
2018-09-19T08:20:13.848Z,24.88
2018-09-19T08:22:40.275Z,24.93
2018-09-19T08:25:06.734Z,24.87
2018-09-19T08:27:33.076Z,24.81
2018-09-19T08:29:59.426Z,24.84
2018-09-19T08:32:25.822Z,24.73
2018-09-19T08:34:52.281Z,24.78
2018-09-19T08:37:18.721Z,24.71
2018-09-19T08:39:45.071Z,24.65
2018-09-19T08:42:11.728Z,24.69
2018-09-19T08:44:38.126Z,24.61
2018-09-19T08:47:04.481Z,24.63
2018-09-19T08:49:31.415Z,24.60
2018-09-19T08:51:57.763Z,24.59
2018-09-19T08:54:24.183Z,24.64
2018-09-19T08:56:50.732Z,24.62
2018-09-19T08:59:17.158Z,24.58
2018-09-19T09:01:43.534Z,24.60
2018-09-19T09:04:09.945Z,24.56
2018-09-19T09:06:36.283Z,24.52
2018-09-19T09:09:02.673Z,24.51
2018-09-19T09:11:29.081Z,24.48
2018-09-19T09:13:55.469Z,24.47
2018-09-19T09:16:21.845Z,24.60
2018-09-19T09:18:48.240Z,24.52
2018-09-19T09:21:14.704Z,24.45
2018-09-19T09:23:41.077Z,24.50
2018-09-19T09:26:07.413Z,24.43
2018-09-19T09:28:33.821Z,24.42
2018-09-19T09:31:00.216Z,24.43
2018-09-19T09:33:26.534Z,24.38
2018-09-19T09:35:52.929Z,24.40
2018-09-19T09:38:19.296Z,24.36
2018-09-19T09:40:45.696Z,24.36
2018-09-19T09:43:12.095Z,24.39
2018-09-19T09:45:38.430Z,24.38
2018-09-19T09:48:04.755Z,24.40
2018-09-19T09:50:31.167Z,24.35
2018-09-19T09:52:57.540Z,24.37
2018-09-19T09:55:23.940Z,24.26
2018-09-19T09:57:50.345Z,24.26
2018-09-19T10:00:16.670Z,24.25
2018-09-19T10:02:43.014Z,24.31
2018-09-19T10:05:09.604Z,24.35
2018-09-19T10:07:36.141Z,24.35
2018-09-19T10:10:02.538Z,24.26
2018-09-19T10:12:28.897Z,24.22
2018-09-19T10:14:55.434Z,24.23
2018-09-19T10:17:21.777Z,24.31
2018-09-19T10:19:48.120Z,24.26
2018-09-19T10:22:14.466Z,24.23
2018-09-19T10:24:40.827Z,24.22
2018-09-19T10:27:07.186Z,24.29
2018-09-19T10:29:33.603Z,24.19
2018-09-19T10:31:59.973Z,24.21
2018-09-19T10:34:26.324Z,24.24
2018-09-19T10:36:52.657Z,24.19
2018-09-19T10:39:19.168Z,24.29
2018-09-19T10:41:45.511Z,24.36
2018-09-19T10:44:11.913Z,24.39
2018-09-19T10:46:38.276Z,24.18
2018-09-19T10:49:04.650Z,24.20
2018-09-19T10:51:30.991Z,24.25
2018-09-19T10:53:57.401Z,24.26
2018-09-19T10:56:23.777Z,24.38
2018-09-19T10:58:50.175Z,24.25
2018-09-19T11:01:16.533Z,24.46
2018-09-19T11:03:43.046Z,24.37
2018-09-19T11:06:09.510Z,24.34
2018-09-19T11:08:36.031Z,24.41
2018-09-19T11:11:02.559Z,24.49
2018-09-19T11:13:29.096Z,24.44
2018-09-19T11:15:55.465Z,24.39
2018-09-19T11:18:21.864Z,24.38
2018-09-19T11:20:48.298Z,24.31
2018-09-19T11:23:16.814Z,24.42
2018-09-19T11:25:43.257Z,24.36
2018-09-19T11:28:09.738Z,24.42
2018-09-19T11:30:36.123Z,24.44
2018-09-19T11:33:02.580Z,24.44
2018-09-19T11:35:28.968Z,24.44
2018-09-19T11:37:55.366Z,24.36
2018-09-19T11:40:21.786Z,24.50
2018-09-19T11:42:48.143Z,24.52
2018-09-19T11:45:14.557Z,24.51
2018-09-19T11:47:40.934Z,24.37
2018-09-19T11:50:07.323Z,24.40
2018-09-19T11:52:33.660Z,24.33
2018-09-19T11:55:00.026Z,24.42
2018-09-19T11:57:26.426Z,24.41
2018-09-19T11:59:52.785Z,24.51
2018-09-19T12:02:19.227Z,24.43
2018-09-19T12:04:45.668Z,24.48
2018-09-19T12:07:12.056Z,24.38
2018-09-19T12:09:38.582Z,24.43
2018-09-19T12:12:04.987Z,24.38
2018-09-19T12:14:31.549Z,24.37
2018-09-19T12:16:57.981Z,24.35
2018-09-19T12:19:24.431Z,24.41
2018-09-19T12:21:50.849Z,24.35
2018-09-19T12:24:17.280Z,24.28
2018-09-19T12:26:43.885Z,24.26
2018-09-19T12:29:10.365Z,24.24
2018-09-19T12:31:38.195Z,24.20
2018-09-19T12:34:05.730Z,24.14
2018-09-19T12:36:32.210Z,24.11
2018-09-19T12:38:58.589Z,24.23
2018-09-19T12:41:25.148Z,24.30
2018-09-19T12:43:51.502Z,24.31
2018-09-19T12:46:18.001Z,24.30
2018-09-19T12:48:44.425Z,24.24
2018-09-19T12:51:10.919Z,24.32
2018-09-19T12:53:37.294Z,24.41
2018-09-19T12:56:04.898Z,24.31
2018-09-19T12:58:31.311Z,24.35
2018-09-19T13:00:57.744Z,24.18
2018-09-19T13:03:24.419Z,24.29
2018-09-19T13:05:50.944Z,24.37
2018-09-19T13:08:17.313Z,24.35
2018-09-19T13:10:43.759Z,24.30
2018-09-19T13:13:10.139Z,24.35
2018-09-19T13:15:36.578Z,24.41
2018-09-19T13:18:02.948Z,24.40
2018-09-19T13:20:29.320Z,24.40
2018-09-19T13:22:55.748Z,24.44
2018-09-19T13:25:22.153Z,24.42
2018-09-19T13:27:49.096Z,24.30
2018-09-19T13:30:15.635Z,24.41
2018-09-19T13:32:42.116Z,24.37
2018-09-19T13:35:08.611Z,24.28
2018-09-19T13:37:35.028Z,24.35
2018-09-19T13:40:01.411Z,24.39
2018-09-19T13:42:27.921Z,24.30
2018-09-19T13:44:54.284Z,24.38
2018-09-19T13:47:20.674Z,24.40
2018-09-19T13:49:47.064Z,24.34
2018-09-19T13:52:13.565Z,24.38
2018-09-19T13:54:39.929Z,24.36
2018-09-19T13:57:06.328Z,24.42
2018-09-19T13:59:32.703Z,24.33
2018-09-19T14:01:59.130Z,24.47
2018-09-19T14:04:25.502Z,24.33
2018-09-19T14:06:51.917Z,24.40
2018-09-19T14:09:18.534Z,24.33
2018-09-19T14:11:44.976Z,24.31
2018-09-19T14:14:11.360Z,24.27
2018-09-19T14:16:37.792Z,24.24
2018-09-19T14:19:04.167Z,24.24
2018-09-19T14:21:30.523Z,24.29
2018-09-19T14:23:56.926Z,24.26
2018-09-19T14:26:23.411Z,24.20
2018-09-19T14:28:50.822Z,24.24
2018-09-19T14:31:17.231Z,24.11
2018-09-19T14:33:43.596Z,24.22
2018-09-19T14:36:09.999Z,24.18
2018-09-19T14:38:36.437Z,24.28
2018-09-19T14:41:02.829Z,24.37
2018-09-19T14:43:29.233Z,24.37
2018-09-19T14:45:55.886Z,24.39
2018-09-19T14:48:22.411Z,24.35
2018-09-19T14:50:49.590Z,24.30
2018-09-19T14:53:15.941Z,24.41
2018-09-19T14:55:42.351Z,24.27
2018-09-19T14:58:08.722Z,24.40
2018-09-19T15:00:35.085Z,24.17
2018-09-19T15:03:01.558Z,24.22
2018-09-19T15:05:27.914Z,24.19
2018-09-19T15:07:54.289Z,24.25
2018-09-19T15:10:20.683Z,24.27
2018-09-19T15:12:47.110Z,24.25
2018-09-19T15:15:13.478Z,24.22
2018-09-19T15:17:39.838Z,24.30
2018-09-19T15:20:06.248Z,24.26
2018-09-19T15:22:32.588Z,24.24
2018-09-19T15:24:59.001Z,24.28
2018-09-19T15:27:25.437Z,24.27
2018-09-19T15:29:51.935Z,24.26
2018-09-19T15:32:18.277Z,24.26
2018-09-19T15:34:44.637Z,24.26
2018-09-19T15:37:11.001Z,24.22
2018-09-19T15:39:37.349Z,24.24
2018-09-19T15:42:03.737Z,24.26
2018-09-19T15:44:30.291Z,24.29
2018-09-19T15:46:56.658Z,24.27
2018-09-19T15:49:23.031Z,24.25
2018-09-19T15:51:49.424Z,24.22
2018-09-19T15:54:15.783Z,24.25
2018-09-19T15:56:42.129Z,24.22
2018-09-19T15:59:08.456Z,24.22
2018-09-19T16:01:34.819Z,24.22
2018-09-19T16:04:01.184Z,24.25
2018-09-19T16:06:27.600Z,24.17
2018-09-19T16:08:53.969Z,24.23
2018-09-19T16:11:20.342Z,24.18
2018-09-19T16:13:46.686Z,24.15
2018-09-19T16:16:13.036Z,24.18
2018-09-19T16:18:39.425Z,24.09
2018-09-19T16:21:05.912Z,24.15
2018-09-19T16:23:32.262Z,24.14
2018-09-19T16:25:58.728Z,24.17
2018-09-19T16:28:25.161Z,24.12
2018-09-19T16:30:51.579Z,24.07
2018-09-19T16:33:17.946Z,24.11
2018-09-19T16:35:44.314Z,24.05
2018-09-19T16:38:10.744Z,24.17
2018-09-19T16:40:37.058Z,24.13
2018-09-19T16:43:03.395Z,24.10
2018-09-19T16:45:29.804Z,24.13
2018-09-19T16:47:56.264Z,24.17
2018-09-19T16:50:22.631Z,24.18
2018-09-19T16:52:48.998Z,24.14
2018-09-19T16:55:15.407Z,24.19
2018-09-19T16:57:41.765Z,24.16
2018-09-19T17:00:08.158Z,24.17
2018-09-19T17:02:34.592Z,24.18
2018-09-19T17:05:01.093Z,24.13
2018-09-19T17:07:27.462Z,24.14
2018-09-19T17:09:53.822Z,24.14
2018-09-19T17:12:20.183Z,24.16
2018-09-19T17:14:46.600Z,24.17
2018-09-19T17:17:12.991Z,24.17
2018-09-19T17:19:39.375Z,24.18
2018-09-19T17:22:05.810Z,24.19
2018-09-19T17:24:32.236Z,24.20
2018-09-19T17:26:58.578Z,24.20
2018-09-19T17:29:24.961Z,24.21
2018-09-19T17:31:51.315Z,24.22
2018-09-19T17:34:17.667Z,24.22
2018-09-19T17:36:44.067Z,24.22
2018-09-19T17:39:10.490Z,24.23
2018-09-19T17:41:36.839Z,24.24
2018-09-19T17:44:03.176Z,24.25
2018-09-19T17:46:29.572Z,24.26
2018-09-19T17:48:58.916Z,24.25
2018-09-19T17:51:25.490Z,24.25
2018-09-19T17:53:51.842Z,24.25
2018-09-19T17:56:18.236Z,24.26
2018-09-19T17:58:44.584Z,24.26
2018-09-19T18:01:10.982Z,24.26
2018-09-19T18:03:37.376Z,24.27
2018-09-19T18:06:03.780Z,24.27
2018-09-19T18:08:30.212Z,24.27
2018-09-19T18:10:56.731Z,24.26
2018-09-19T18:13:23.152Z,24.24
2018-09-19T18:15:49.548Z,24.25
2018-09-19T18:18:15.891Z,24.25
2018-09-19T18:20:42.482Z,24.23
2018-09-19T18:23:08.870Z,24.24
2018-09-19T18:25:35.210Z,24.23
2018-09-19T18:28:01.622Z,24.23
2018-09-19T18:30:27.984Z,24.22
2018-09-19T18:32:54.433Z,24.22
2018-09-19T18:35:20.800Z,24.21
2018-09-19T18:37:47.203Z,24.20
2018-09-19T18:40:13.571Z,24.20
2018-09-19T18:42:39.942Z,24.19
2018-09-19T18:45:06.322Z,24.19
2018-09-19T18:47:32.725Z,24.18
2018-09-19T18:49:59.107Z,24.18
2018-09-19T18:52:25.479Z,24.17
2018-09-19T18:54:51.827Z,24.16
2018-09-19T18:57:18.251Z,24.15
2018-09-19T18:59:44.641Z,24.14
2018-09-19T19:02:10.992Z,24.14
2018-09-19T19:04:37.343Z,24.14
2018-09-19T19:07:03.688Z,24.13
2018-09-19T19:09:30.165Z,24.11
2018-09-19T19:11:56.523Z,24.12
2018-09-19T19:14:22.911Z,24.11
2018-09-19T19:16:49.279Z,24.10
2018-09-19T19:19:15.711Z,24.10
2018-09-19T19:21:42.073Z,24.09
2018-09-19T19:24:08.403Z,24.09
2018-09-19T19:26:34.755Z,24.08
2018-09-19T19:29:01.136Z,24.07
2018-09-19T19:31:27.465Z,24.06
2018-09-19T19:33:53.799Z,24.06
2018-09-19T19:36:20.193Z,24.05
2018-09-19T19:38:46.560Z,24.04
2018-09-19T19:41:12.971Z,24.04
2018-09-19T19:43:39.321Z,24.03
2018-09-19T19:46:05.706Z,24.03
2018-09-19T19:48:32.048Z,24.01
2018-09-19T19:50:58.374Z,23.99
2018-09-19T19:53:24.798Z,23.98
2018-09-19T19:55:51.146Z,23.99
2018-09-19T19:58:17.499Z,23.98
2018-09-19T20:00:43.842Z,23.96
2018-09-19T20:03:10.201Z,23.96
2018-09-19T20:05:36.572Z,23.95
2018-09-19T20:08:03.018Z,23.93
2018-09-19T20:10:29.394Z,23.93
2018-09-19T20:12:55.760Z,23.92
2018-09-19T20:15:22.116Z,23.91
2018-09-19T20:17:48.453Z,23.90
2018-09-19T20:20:14.820Z,23.90
2018-09-19T20:22:41.184Z,23.88
2018-09-19T20:25:07.574Z,23.87
2018-09-19T20:27:33.955Z,23.87
2018-09-19T20:30:00.341Z,23.87
2018-09-19T20:32:26.714Z,23.85
2018-09-19T20:34:53.062Z,23.85
2018-09-19T20:37:19.400Z,23.83
2018-09-19T20:39:45.735Z,23.82
2018-09-19T20:42:12.114Z,23.82
2018-09-19T20:44:38.494Z,23.81
2018-09-19T20:47:04.994Z,23.79
2018-09-19T20:49:31.350Z,23.78
2018-09-19T20:51:57.732Z,23.78
2018-09-19T20:54:24.086Z,23.77
2018-09-19T20:56:50.451Z,23.75
2018-09-19T20:59:16.782Z,23.76
2018-09-19T21:01:43.112Z,23.75
2018-09-19T21:04:09.459Z,23.74
2018-09-19T21:06:35.901Z,23.73
2018-09-19T21:09:02.304Z,23.72
2018-09-19T21:11:28.662Z,23.71
2018-09-19T21:13:55.018Z,23.70
2018-09-19T21:16:21.347Z,23.70
2018-09-19T21:18:47.701Z,23.69
2018-09-19T21:21:14.078Z,23.69
2018-09-19T21:23:40.489Z,23.68
2018-09-19T21:26:06.838Z,23.66
2018-09-19T21:28:33.227Z,23.66
2018-09-19T21:30:59.630Z,23.65
2018-09-19T21:33:25.971Z,23.64
2018-09-19T21:35:52.379Z,23.63
2018-09-19T21:38:18.804Z,23.63
2018-09-19T21:40:45.188Z,23.63
2018-09-19T21:43:11.701Z,23.61
2018-09-19T21:45:39.264Z,23.60
2018-09-19T21:48:05.592Z,23.59
2018-09-19T21:50:31.955Z,23.58
2018-09-19T21:52:58.305Z,23.58
2018-09-19T21:55:24.756Z,23.57
2018-09-19T21:57:51.190Z,23.56
2018-09-19T22:00:17.541Z,23.55
2018-09-19T22:02:43.950Z,23.55
2018-09-19T22:05:10.321Z,23.54
2018-09-19T22:07:36.826Z,23.53
2018-09-19T22:10:03.186Z,23.53
2018-09-19T22:12:29.525Z,23.52
2018-09-19T22:14:55.919Z,23.50
2018-09-19T22:17:22.310Z,23.48
2018-09-19T22:19:48.720Z,23.50
2018-09-19T22:22:15.064Z,23.48
2018-09-19T22:24:41.556Z,23.49
2018-09-19T22:27:07.990Z,23.45
2018-09-19T22:29:34.476Z,23.46
2018-09-19T22:32:00.844Z,23.45
2018-09-19T22:34:27.186Z,23.45
2018-09-19T22:36:53.581Z,23.43
2018-09-19T22:39:19.925Z,23.40
2018-09-19T22:41:47.155Z,23.41
2018-09-19T22:44:13.622Z,23.37
2018-09-19T22:46:40.013Z,23.34
2018-09-19T22:49:06.389Z,23.31
2018-09-19T22:51:32.778Z,23.23
2018-09-19T22:53:59.213Z,23.21
2018-09-19T22:56:25.617Z,23.14
2018-09-19T22:58:51.947Z,23.11
2018-09-19T23:01:18.384Z,23.05
2018-09-19T23:03:44.727Z,23.04
2018-09-19T23:06:11.081Z,23.01
2018-09-19T23:08:37.483Z,22.98
2018-09-19T23:11:03.915Z,22.96
2018-09-19T23:13:30.378Z,22.91
2018-09-19T23:15:56.720Z,22.89
2018-09-19T23:18:23.077Z,22.87
2018-09-19T23:20:49.482Z,22.83
2018-09-19T23:23:15.866Z,22.82
2018-09-19T23:25:42.240Z,22.78
2018-09-19T23:28:08.611Z,22.75
2018-09-19T23:30:34.999Z,22.72
2018-09-19T23:33:01.459Z,22.72
2018-09-19T23:35:27.832Z,22.69
2018-09-19T23:37:54.224Z,22.68
2018-09-19T23:40:20.620Z,22.65
2018-09-19T23:42:46.971Z,22.64
2018-09-19T23:45:13.334Z,22.62
2018-09-19T23:47:39.717Z,22.58
2018-09-19T23:50:06.094Z,22.56
2018-09-19T23:52:32.447Z,22.55
2018-09-19T23:54:58.820Z,22.54
2018-09-19T23:57:25.155Z,22.54
2018-09-19T23:59:51.506Z,22.51
